sensor_id;sensor_type;location;lat;lon;timestamp;pressure;altitude;pressure_sealevel;temperature;humidity
60437;BME280;46289;51.992;4.498;2023-01-28T10:43:56;103405.88;;;7.00;49.74
60437;BME280;46289;51.992;4.498;2023-01-28T10:46:04;103409.69;;;5.35;55.86
60437;BME280;46289;51.992;4.498;2023-01-28T10:48:16;103402.19;;;4.76;59.51
60437;BME280;46289;51.992;4.498;2023-01-28T10:50:25;103402.66;;;4.58;60.03
60437;BME280;46289;51.992;4.498;2023-01-28T10:52:31;103400.44;;;4.40;59.90
60437;BME280;46289;51.992;4.498;2023-01-28T10:54:36;103392.56;;;4.37;60.96
60437;BME280;46289;51.992;4.498;2023-01-28T10:56:42;103394.22;;;4.35;61.09
60437;BME280;46289;51.992;4.498;2023-01-28T10:58:56;103386.06;;;4.22;60.80
60437;BME280;46289;51.992;4.498;2023-01-28T11:01:06;103376.81;;;4.34;61.46
60437;BME280;46289;51.992;4.498;2023-01-28T11:03:17;103364.44;;;4.24;61.64
60437;BME280;46289;51.992;4.498;2023-01-28T11:05:26;103352.31;;;4.25;61.51
60437;BME280;46289;51.992;4.498;2023-01-28T11:07:31;103349.13;;;4.36;60.48
60437;BME280;46289;51.992;4.498;2023-01-28T11:09:37;103349.44;;;4.49;60.66
60437;BME280;46289;51.992;4.498;2023-01-28T11:11:42;103335.34;;;4.40;60.57
60437;BME280;46289;51.992;4.498;2023-01-28T11:13:49;103330.81;;;4.33;60.44
60437;BME280;46289;51.992;4.498;2023-01-28T11:16:00;103323.16;;;4.39;60.81
60437;BME280;46289;51.992;4.498;2023-01-28T11:18:16;103325.16;;;4.50;60.63
60437;BME280;46289;51.992;4.498;2023-01-28T11:20:28;103326.94;;;4.51;60.33
60437;BME280;46289;51.992;4.498;2023-01-28T11:22:38;103316.97;;;4.71;61.07
60437;BME280;46289;51.992;4.498;2023-01-28T11:24:49;103316.97;;;4.69;60.01
60437;BME280;46289;51.992;4.498;2023-01-28T11:26:56;103307.53;;;4.74;59.79
60437;BME280;46289;51.992;4.498;2023-01-28T11:29:03;103301.34;;;4.69;59.98
60437;BME280;46289;51.992;4.498;2023-01-28T11:31:14;103296.25;;;4.75;59.80
60437;BME280;46289;51.992;4.498;2023-01-28T11:33:23;103284.56;;;4.96;59.97
60437;BME280;46289;51.992;4.498;2023-01-28T11:35:30;103278.31;;;4.88;59.00
60437;BME280;46289;51.992;4.498;2023-01-28T11:37:36;103275.72;;;4.51;59.25
60437;BME280;46289;51.992;4.498;2023-01-28T11:39:41;103272.63;;;4.68;59.39
60437;BME280;46289;51.992;4.498;2023-01-28T11:41:50;103280.31;;;4.61;59.55
60437;BME280;46289;51.992;4.498;2023-01-28T11:43:57;103284.34;;;4.87;60.72
60437;BME280;46289;51.992;4.498;2023-01-28T11:46:19;103294.84;;;4.90;59.51
60437;BME280;46289;51.992;4.498;2023-01-28T11:48:40;103296.63;;;4.91;59.64
60437;BME280;46289;51.992;4.498;2023-01-28T11:50:52;103290.03;;;5.08;60.27
60437;BME280;46289;51.992;4.498;2023-01-28T11:53:16;103292.78;;;5.14;58.87
60437;BME280;46289;51.992;4.498;2023-01-28T11:55:41;103298.44;;;4.95;58.49
60437;BME280;46289;51.992;4.498;2023-01-28T11:57:58;103300.19;;;4.96;58.10
60437;BME280;46289;51.992;4.498;2023-01-28T12:00:30;103306.56;;;5.09;58.89
60437;BME280;46289;51.992;4.498;2023-01-28T12:02:48;103315.72;;;5.31;59.29
60437;BME280;46289;51.992;4.498;2023-01-28T12:05:08;103303.31;;;5.19;58.32
60437;BME280;46289;51.992;4.498;2023-01-28T12:07:30;103305.34;;;5.34;58.83
60437;BME280;46289;51.992;4.498;2023-01-28T12:09:48;103307.31;;;5.44;58.36
60437;BME280;46289;51.992;4.498;2023-01-28T12:12:06;103314.94;;;5.35;59.39
60437;BME280;46289;51.992;4.498;2023-01-28T12:14:23;103318.09;;;5.62;58.63
60437;BME280;46289;51.992;4.498;2023-01-28T12:16:48;103319.13;;;5.28;57.65
60437;BME280;46289;51.992;4.498;2023-01-28T12:19:13;103322.72;;;5.33;58.06
60437;BME280;46289;51.992;4.498;2023-01-28T12:21:31;103340.81;;;5.68;57.66
60437;BME280;46289;51.992;4.498;2023-01-28T12:23:52;103340.31;;;5.86;57.92
60437;BME280;46289;51.992;4.498;2023-01-28T12:26:09;103348.69;;;5.69;57.91
60437;BME280;46289;51.992;4.498;2023-01-28T12:28:28;103346.28;;;5.80;56.89
60437;BME280;46289;51.992;4.498;2023-01-28T12:30:47;103341.59;;;6.06;56.96
60437;BME280;46289;51.992;4.498;2023-01-28T12:33:09;103342.09;;;6.34;56.80
60437;BME280;46289;51.992;4.498;2023-01-28T12:35:28;103332.78;;;6.48;56.44
60437;BME280;46289;51.992;4.498;2023-01-28T12:37:47;103330.13;;;6.47;56.33
60437;BME280;46289;51.992;4.498;2023-01-28T12:40:08;103314.53;;;6.53;56.61
60437;BME280;46289;51.992;4.498;2023-01-28T12:42:26;103316.34;;;6.57;55.10
60437;BME280;46289;51.992;4.498;2023-01-28T12:44:38;103299.56;;;6.41;55.80
60437;BME280;46289;51.992;4.498;2023-01-28T12:46:50;103300.81;;;6.13;56.09
60437;BME280;46289;51.992;4.498;2023-01-28T12:49:02;103290.38;;;6.13;57.09
60437;BME280;46289;51.992;4.498;2023-01-28T12:51:16;103278.28;;;6.17;56.13
60437;BME280;46289;51.992;4.498;2023-01-28T12:53:29;103266.78;;;6.07;56.14
60437;BME280;46289;51.992;4.498;2023-01-28T12:55:40;103258.13;;;6.09;57.00
60437;BME280;46289;51.992;4.498;2023-01-28T12:57:47;103238.94;;;6.06;56.29
60437;BME280;46289;51.992;4.498;2023-01-28T13:00:14;103231.03;;;6.03;56.73
60437;BME280;46289;51.992;4.498;2023-01-28T13:02:25;103234.59;;;6.06;56.73
60437;BME280;46289;51.992;4.498;2023-01-28T13:04:36;103223.97;;;5.97;56.81
60437;BME280;46289;51.992;4.498;2023-01-28T13:06:50;103227.13;;;6.29;56.86
60437;BME280;46289;51.992;4.498;2023-01-28T13:09:03;103224.63;;;6.37;56.64
60437;BME280;46289;51.992;4.498;2023-01-28T13:11:16;103221.16;;;6.38;56.72
60437;BME280;46289;51.992;4.498;2023-01-28T13:13:28;103226.69;;;6.59;56.02
60437;BME280;46289;51.992;4.498;2023-01-28T13:15:37;103221.66;;;6.72;55.50
60437;BME280;46289;51.992;4.498;2023-01-28T13:17:53;103225.91;;;6.65;55.38
60437;BME280;46289;51.992;4.498;2023-01-28T13:19:58;103225.19;;;6.75;56.48
60437;BME280;46289;51.992;4.498;2023-01-28T13:22:26;103233.06;;;6.77;55.71
60437;BME280;46289;51.992;4.498;2023-01-28T13:24:32;103233.28;;;6.94;55.61
60437;BME280;46289;51.992;4.498;2023-01-28T13:26:42;103243.75;;;6.97;55.23
60437;BME280;46289;51.992;4.498;2023-01-28T13:28:50;103237.59;;;6.90;56.10
60437;BME280;46289;51.992;4.498;2023-01-28T13:31:02;103228.16;;;7.04;56.14
60437;BME280;46289;51.992;4.498;2023-01-28T13:33:26;103227.88;;;6.80;54.08
60437;BME280;46289;51.992;4.498;2023-01-28T13:35:35;103224.38;;;6.79;55.27
60437;BME280;46289;51.992;4.498;2023-01-28T13:37:45;103223.06;;;7.14;54.73
60437;BME280;46289;51.992;4.498;2023-01-28T13:39:59;103227.72;;;6.69;54.32
60437;BME280;46289;51.992;4.498;2023-01-28T13:42:24;103229.75;;;6.92;55.90
60437;BME280;46289;51.992;4.498;2023-01-28T13:44:32;103242.31;;;7.20;55.99
60437;BME280;46289;51.992;4.498;2023-01-28T13:46:38;103243.81;;;7.01;54.94
60437;BME280;46289;51.992;4.498;2023-01-28T13:48:45;103246.88;;;6.70;53.42
60437;BME280;46289;51.992;4.498;2023-01-28T13:50:53;103257.41;;;6.76;54.17
60437;BME280;46289;51.992;4.498;2023-01-28T13:53:15;103255.88;;;6.90;55.60
60437;BME280;46289;51.992;4.498;2023-01-28T13:55:22;103251.09;;;6.58;54.93
60437;BME280;46289;51.992;4.498;2023-01-28T13:58:11;103244.75;;;6.44;55.14
60437;BME280;46289;51.992;4.498;2023-01-28T14:00:26;103247.91;;;6.22;56.24
60437;BME280;46289;51.992;4.498;2023-01-28T14:02:49;103236.00;;;6.42;55.92
60437;BME280;46289;51.992;4.498;2023-01-28T14:07:52;103240.91;;;6.77;55.53
60437;BME280;46289;51.992;4.498;2023-01-28T14:10:16;103244.75;;;6.44;54.31
60437;BME280;46289;51.992;4.498;2023-01-28T14:12:44;103246.34;;;6.34;55.29
60437;BME280;46289;51.992;4.498;2023-01-28T14:15:05;103254.19;;;6.36;55.04
60437;BME280;46289;51.992;4.498;2023-01-28T14:17:22;103265.44;;;6.30;54.96
60437;BME280;46289;51.992;4.498;2023-01-28T14:19:36;103271.22;;;6.12;56.12
60437;BME280;46289;51.992;4.498;2023-01-28T14:21:42;103252.47;;;5.86;56.14
60437;BME280;46289;51.992;4.498;2023-01-28T14:23:49;103256.91;;;5.92;55.84
60437;BME280;46289;51.992;4.498;2023-01-28T14:26:06;103253.41;;;5.90;56.33
60437;BME280;46289;51.992;4.498;2023-01-28T14:28:17;103260.09;;;5.76;56.96
60437;BME280;46289;51.992;4.498;2023-01-28T14:30:29;103260.88;;;6.19;57.68
60437;BME280;46289;51.992;4.498;2023-01-28T14:32:47;103257.84;;;6.47;57.55
60437;BME280;46289;51.992;4.498;2023-01-28T14:34:54;103252.50;;;6.40;56.11
60437;BME280;46289;51.992;4.498;2023-01-28T14:37:03;103244.94;;;6.02;55.18
60437;BME280;46289;51.992;4.498;2023-01-28T14:39:16;103238.09;;;6.08;56.72
60437;BME280;46289;51.992;4.498;2023-01-28T14:41:25;103236.78;;;6.35;56.56
60437;BME280;46289;51.992;4.498;2023-01-28T14:43:32;103247.03;;;6.23;55.78
60437;BME280;46289;51.992;4.498;2023-01-28T14:45:52;103241.34;;;6.48;57.02
60437;BME280;46289;51.992;4.498;2023-01-28T14:48:23;103238.69;;;6.45;55.37
60437;BME280;46289;51.992;4.498;2023-01-28T14:50:36;103245.97;;;6.11;56.39
60437;BME280;46289;51.992;4.498;2023-01-28T14:53:02;103243.72;;;6.34;56.42
60437;BME280;46289;51.992;4.498;2023-01-28T14:55:29;103242.25;;;5.96;55.93
60437;BME280;46289;51.992;4.498;2023-01-28T14:57:45;103245.38;;;5.79;56.72
60437;BME280;46289;51.992;4.498;2023-01-28T14:59:56;103254.00;;;5.75;57.20
60437;BME280;46289;51.992;4.498;2023-01-28T15:02:11;103259.63;;;5.97;56.68
60437;BME280;46289;51.992;4.498;2023-01-28T15:04:25;103267.66;;;6.07;56.40
60437;BME280;46289;51.992;4.498;2023-01-28T15:06:34;103269.06;;;5.90;56.07
60437;BME280;46289;51.992;4.498;2023-01-28T15:08:39;103265.78;;;5.99;57.56
60437;BME280;46289;51.992;4.498;2023-01-28T15:10:44;103263.31;;;6.08;57.00
60437;BME280;46289;51.992;4.498;2023-01-28T15:12:55;103271.09;;;6.05;57.91
60437;BME280;46289;51.992;4.498;2023-01-28T15:15:09;103263.06;;;5.94;57.18
60437;BME280;46289;51.992;4.498;2023-01-28T15:17:24;103272.81;;;6.04;57.71
60437;BME280;46289;51.992;4.498;2023-01-28T15:19:32;103269.25;;;5.99;57.99
60437;BME280;46289;51.992;4.498;2023-01-28T15:21:41;103267.25;;;5.86;57.24
60437;BME280;46289;51.992;4.498;2023-01-28T15:23:49;103274.88;;;5.75;57.20
60437;BME280;46289;51.992;4.498;2023-01-28T15:25:59;103280.66;;;5.60;58.18
60437;BME280;46289;51.992;4.498;2023-01-28T15:28:16;103280.38;;;5.45;59.02
60437;BME280;46289;51.992;4.498;2023-01-28T15:30:27;103288.19;;;5.45;59.87
60437;BME280;46289;51.992;4.498;2023-01-28T15:32:35;103297.69;;;5.41;59.94
60437;BME280;46289;51.992;4.498;2023-01-28T15:34:47;103295.78;;;5.33;59.18
60437;BME280;46289;51.992;4.498;2023-01-28T15:36:52;103284.81;;;5.49;59.84
60437;BME280;46289;51.992;4.498;2023-01-28T15:38:57;103271.88;;;5.55;59.73
60437;BME280;46289;51.992;4.498;2023-01-28T15:41:07;103265.84;;;5.58;60.22
60437;BME280;46289;51.992;4.498;2023-01-28T15:43:19;103266.00;;;5.65;60.09
60437;BME280;46289;51.992;4.498;2023-01-28T15:45:27;103272.75;;;5.54;59.29
60437;BME280;46289;51.992;4.498;2023-01-28T15:47:36;103284.00;;;5.52;59.30
60437;BME280;46289;51.992;4.498;2023-01-28T15:49:43;103284.44;;;5.31;59.04
60437;BME280;46289;51.992;4.498;2023-01-28T15:51:49;103279.16;;;5.27;59.20
60437;BME280;46289;51.992;4.498;2023-01-28T15:53:57;103289.75;;;5.35;60.08
60437;BME280;46289;51.992;4.498;2023-01-28T15:56:07;103284.63;;;5.40;60.04
60437;BME280;46289;51.992;4.498;2023-01-28T15:58:25;103286.41;;;5.42;60.46
60437;BME280;46289;51.992;4.498;2023-01-28T16:00:32;103294.31;;;5.47;60.89
60437;BME280;46289;51.992;4.498;2023-01-28T16:02:42;103290.78;;;5.45;60.27
60437;BME280;46289;51.992;4.498;2023-01-28T16:04:57;103291.53;;;5.38;61.05
60437;BME280;46289;51.992;4.498;2023-01-28T16:07:04;103297.72;;;5.43;60.54
60437;BME280;46289;51.992;4.498;2023-01-28T16:09:19;103293.22;;;5.36;60.98
60437;BME280;46289;51.992;4.498;2023-01-28T16:11:28;103289.88;;;5.41;61.30
60437;BME280;46289;51.992;4.498;2023-01-28T16:13:41;103292.47;;;5.40;62.15
60437;BME280;46289;51.992;4.498;2023-01-28T16:15:50;103299.41;;;5.41;61.57
60437;BME280;46289;51.992;4.498;2023-01-28T16:17:56;103295.75;;;5.31;61.85
60437;BME280;46289;51.992;4.498;2023-01-28T16:20:06;103295.75;;;5.31;61.98
60437;BME280;46289;51.992;4.498;2023-01-28T16:22:19;103297.44;;;5.29;62.28
60437;BME280;46289;51.992;4.498;2023-01-28T16:24:28;103299.16;;;5.28;63.25
60437;BME280;46289;51.992;4.498;2023-01-28T16:26:36;103298.13;;;5.20;63.52
60437;BME280;46289;51.992;4.498;2023-01-28T16:28:44;103281.53;;;5.17;63.71
60437;BME280;46289;51.992;4.498;2023-01-28T16:30:49;103270.03;;;5.07;63.88
60437;BME280;46289;51.992;4.498;2023-01-28T16:32:54;103274.25;;;5.00;64.32
60437;BME280;46289;51.992;4.498;2023-01-28T16:35:01;103292.31;;;4.93;64.26
60437;BME280;46289;51.992;4.498;2023-01-28T16:37:09;103289.63;;;4.90;64.80
60437;BME280;46289;51.992;4.498;2023-01-28T16:39:14;103281.69;;;4.83;64.75
60437;BME280;46289;51.992;4.498;2023-01-28T16:41:25;103286.94;;;4.87;65.21
60437;BME280;46289;51.992;4.498;2023-01-28T16:43:32;103285.31;;;4.90;64.71
60437;BME280;46289;51.992;4.498;2023-01-28T16:45:40;103284.28;;;4.83;65.42
60437;BME280;46289;51.992;4.498;2023-01-28T16:47:47;103287.75;;;4.84;65.47
60437;BME280;46289;51.992;4.498;2023-01-28T16:49:53;103287.69;;;4.79;65.67
60437;BME280;46289;51.992;4.498;2023-01-28T16:51:58;103283.28;;;4.77;66.69
60437;BME280;46289;51.992;4.498;2023-01-28T16:54:05;103287.69;;;4.79;66.07
60437;BME280;46289;51.992;4.498;2023-01-28T16:56:13;103284.16;;;4.79;65.68
60437;BME280;46289;51.992;4.498;2023-01-28T16:58:36;103280.69;;;4.78;65.93
60437;BME280;46289;51.992;4.498;2023-01-28T17:00:44;103284.16;;;4.77;65.95
60437;BME280;46289;51.992;4.498;2023-01-28T17:02:49;103288.50;;;4.77;66.16
60437;BME280;46289;51.992;4.498;2023-01-28T17:04:56;103289.38;;;4.77;66.27
60437;BME280;46289;51.992;4.498;2023-01-28T17:07:05;103298.91;;;4.77;66.59
60437;BME280;46289;51.992;4.498;2023-01-28T17:09:13;103296.25;;;4.75;66.30
60437;BME280;46289;51.992;4.498;2023-01-28T17:11:19;103292.66;;;4.70;66.66
60437;BME280;46289;51.992;4.498;2023-01-28T17:13:24;103302.22;;;4.70;67.14
60437;BME280;46289;51.992;4.498;2023-01-28T17:15:29;103307.41;;;4.70;66.85
60437;BME280;46289;51.992;4.498;2023-01-28T17:17:38;103296.81;;;4.62;67.57
60437;BME280;46289;51.992;4.498;2023-01-28T17:19:51;103293.34;;;4.63;67.98
60437;BME280;46289;51.992;4.498;2023-01-28T17:21:57;103296.00;;;4.65;67.90
60437;BME280;46289;51.992;4.498;2023-01-28T17:24:03;103308.16;;;4.64;67.98
60437;BME280;46289;51.992;4.498;2023-01-28T17:26:12;103301.16;;;4.61;66.79
60437;BME280;46289;51.992;4.498;2023-01-28T17:28:20;103303.78;;;4.63;66.82
60437;BME280;46289;51.992;4.498;2023-01-28T17:30:25;103307.22;;;4.62;67.10
60437;BME280;46289;51.992;4.498;2023-01-28T17:32:31;103300.22;;;4.59;66.94
60437;BME280;46289;51.992;4.498;2023-01-28T17:34:39;103303.63;;;4.57;67.28
60437;BME280;46289;51.992;4.498;2023-01-28T17:36:51;103305.38;;;4.56;67.11
60437;BME280;46289;51.992;4.498;2023-01-28T17:38:58;103305.31;;;4.55;66.98
60437;BME280;46289;51.992;4.498;2023-01-28T17:41:12;103302.72;;;4.55;67.16
60437;BME280;46289;51.992;4.498;2023-01-28T17:43:18;103300.91;;;4.51;67.13
60437;BME280;46289;51.992;4.498;2023-01-28T17:45:23;103299.19;;;4.53;67.59
60437;BME280;46289;51.992;4.498;2023-01-28T17:47:28;103299.03;;;4.47;67.18
60437;BME280;46289;51.992;4.498;2023-01-28T17:49:35;103300.81;;;4.48;67.29
60437;BME280;46289;51.992;4.498;2023-01-28T17:51:42;103307.72;;;4.46;67.50
60437;BME280;46289;51.992;4.498;2023-01-28T17:53:52;103302.44;;;4.43;67.52
60437;BME280;46289;51.992;4.498;2023-01-28T17:55:57;103302.38;;;4.41;67.51
60437;BME280;46289;51.992;4.498;2023-01-28T17:58:02;103304.91;;;4.38;67.78
60437;BME280;46289;51.992;4.498;2023-01-28T18:00:09;103310.13;;;4.38;68.22
60437;BME280;46289;51.992;4.498;2023-01-28T18:02:16;103312.59;;;4.33;68.29
60437;BME280;46289;51.992;4.498;2023-01-28T18:04:24;103305.53;;;4.28;68.56
60437;BME280;46289;51.992;4.498;2023-01-28T18:06:30;103308.00;;;4.23;68.44
60437;BME280;46289;51.992;4.498;2023-01-28T18:08:39;103307.19;;;4.24;68.41
60437;BME280;46289;51.992;4.498;2023-01-28T18:10:44;103309.78;;;4.24;69.20
60437;BME280;46289;51.992;4.498;2023-01-28T18:12:51;103308.00;;;4.22;69.00
60437;BME280;46289;51.992;4.498;2023-01-28T18:14:57;103323.59;;;4.22;69.21
60437;BME280;46289;51.992;4.498;2023-01-28T18:17:02;103331.28;;;4.17;68.97
60437;BME280;46289;51.992;4.498;2023-01-28T18:19:08;103330.34;;;4.13;68.83
60437;BME280;46289;51.992;4.498;2023-01-28T18:21:30;103332.09;;;4.16;69.19
60437;BME280;46289;51.992;4.498;2023-01-28T18:23:57;103335.56;;;4.15;69.10
60437;BME280;46289;51.992;4.498;2023-01-28T18:26:02;103344.22;;;4.14;69.18
60437;BME280;46289;51.992;4.498;2023-01-28T18:28:09;103355.50;;;4.14;68.62
60437;BME280;46289;51.992;4.498;2023-01-28T18:30:15;103352.03;;;4.14;68.71
60437;BME280;46289;51.992;4.498;2023-01-28T18:32:20;103358.97;;;4.15;69.03
60437;BME280;46289;51.992;4.498;2023-01-28T18:34:27;103365.84;;;4.13;68.42
60437;BME280;46289;51.992;4.498;2023-01-28T18:36:32;103367.66;;;4.15;68.48
60437;BME280;46289;51.992;4.498;2023-01-28T18:38:39;103361.56;;;4.13;69.03
60437;BME280;46289;51.992;4.498;2023-01-28T18:40:53;103367.56;;;4.11;69.24
60437;BME280;46289;51.992;4.498;2023-01-28T18:42:58;103365.78;;;4.10;69.43
60437;BME280;46289;51.992;4.498;2023-01-28T18:45:06;103363.19;;;4.10;69.29
60437;BME280;46289;51.992;4.498;2023-01-28T18:47:14;103364.06;;;4.10;69.58
60437;BME280;46289;51.992;4.498;2023-01-28T18:49:19;103356.22;;;4.09;69.88
60437;BME280;46289;51.992;4.498;2023-01-28T18:51:24;103363.03;;;4.05;70.40
60437;BME280;46289;51.992;4.498;2023-01-28T18:53:34;103354.28;;;4.02;69.59
60437;BME280;46289;51.992;4.498;2023-01-28T18:55:41;103356.94;;;4.03;69.38
60437;BME280;46289;51.992;4.498;2023-01-28T18:57:49;103355.13;;;4.01;70.00
60437;BME280;46289;51.992;4.498;2023-01-28T18:59:54;103342.75;;;3.92;70.55
60437;BME280;46289;51.992;4.498;2023-01-28T19:02:00;103355.84;;;3.95;70.48
60437;BME280;46289;51.992;4.498;2023-01-28T19:04:08;103353.03;;;3.87;70.73
60437;BME280;46289;51.992;4.498;2023-01-28T19:06:16;103360.00;;;3.88;71.34
60437;BME280;46289;51.992;4.498;2023-01-28T19:08:21;103356.50;;;3.88;70.83
60437;BME280;46289;51.992;4.498;2023-01-28T19:10:29;103359.03;;;3.85;70.86
60437;BME280;46289;51.992;4.498;2023-01-28T19:12:34;103361.59;;;3.83;71.16
60437;BME280;46289;51.992;4.498;2023-01-28T19:14:42;103357.19;;;3.81;71.55
60437;BME280;46289;51.992;4.498;2023-01-28T19:16:48;103352.84;;;3.81;71.72
60437;BME280;46289;51.992;4.498;2023-01-28T19:18:55;103350.25;;;3.81;71.54
60437;BME280;46289;51.992;4.498;2023-01-28T19:21:02;103338.97;;;3.81;71.86
60437;BME280;46289;51.992;4.498;2023-01-28T19:23:06;103338.97;;;3.81;71.95
60437;BME280;46289;51.992;4.498;2023-01-28T19:25:13;103345.84;;;3.79;72.09
60437;BME280;46289;51.992;4.498;2023-01-28T19:27:19;103346.75;;;3.79;72.05
60437;BME280;46289;51.992;4.498;2023-01-28T19:29:24;103355.44;;;3.81;72.36
60437;BME280;46289;51.992;4.498;2023-01-28T19:31:32;103362.44;;;3.82;72.13
60437;BME280;46289;51.992;4.498;2023-01-28T19:33:38;103358.03;;;3.80;72.48
60437;BME280;46289;51.992;4.498;2023-01-28T19:35:43;103357.16;;;3.79;72.38
60437;BME280;46289;51.992;4.498;2023-01-28T19:37:51;103361.41;;;3.77;73.21
60437;BME280;46289;51.992;4.498;2023-01-28T19:39:56;103366.63;;;3.77;72.43
60437;BME280;46289;51.992;4.498;2023-01-28T19:42:03;103366.53;;;3.74;72.73
60437;BME280;46289;51.992;4.498;2023-01-28T19:44:09;103360.41;;;3.72;73.39
60437;BME280;46289;51.992;4.498;2023-01-28T19:46:17;103356.97;;;3.73;72.67
60437;BME280;46289;51.992;4.498;2023-01-28T19:48:25;103357.81;;;3.72;73.83
60437;BME280;46289;51.992;4.498;2023-01-28T19:50:30;103346.53;;;3.71;73.73
60437;BME280;46289;51.992;4.498;2023-01-28T19:52:36;103342.22;;;3.72;73.56
60437;BME280;46289;51.992;4.498;2023-01-28T19:54:42;103344.81;;;3.72;74.10
60437;BME280;46289;51.992;4.498;2023-01-28T19:56:47;103343.94;;;3.71;74.26
60437;BME280;46289;51.992;4.498;2023-01-28T19:58:53;103336.06;;;3.70;74.19
60437;BME280;46289;51.992;4.498;2023-01-28T20:01:03;103344.66;;;3.67;74.60
60437;BME280;46289;51.992;4.498;2023-01-28T20:03:08;103343.97;;;3.73;74.17
60437;BME280;46289;51.992;4.498;2023-01-28T20:05:21;103339.53;;;3.70;74.02
60437;BME280;46289;51.992;4.498;2023-01-28T20:07:27;103339.53;;;3.69;74.08
60437;BME280;46289;51.992;4.498;2023-01-28T20:09:32;103337.81;;;3.69;74.35
60437;BME280;46289;51.992;4.498;2023-01-28T20:11:37;103340.41;;;3.69;74.61
60437;BME280;46289;51.992;4.498;2023-01-28T20:13:45;103342.13;;;3.69;75.33
60437;BME280;46289;51.992;4.498;2023-01-28T20:15:50;103342.00;;;3.66;74.64
60437;BME280;46289;51.992;4.498;2023-01-28T20:17:57;103343.78;;;3.67;75.08
60437;BME280;46289;51.992;4.498;2023-01-28T20:20:07;103343.72;;;3.64;75.14
60437;BME280;46289;51.992;4.498;2023-01-28T20:22:15;103342.00;;;3.66;74.77
60437;BME280;46289;51.992;4.498;2023-01-28T20:24:21;103341.13;;;3.65;74.43
60437;BME280;46289;51.992;4.498;2023-01-28T20:26:27;103340.25;;;3.65;75.61
60437;BME280;46289;51.992;4.498;2023-01-28T20:28:33;103344.59;;;3.64;75.48
60437;BME280;46289;51.992;4.498;2023-01-28T20:30:40;103338.50;;;3.64;75.00
60437;BME280;46289;51.992;4.498;2023-01-28T20:32:45;103337.59;;;3.63;75.01
60437;BME280;46289;51.992;4.498;2023-01-28T20:34:51;103337.59;;;3.63;75.29
60437;BME280;46289;51.992;4.498;2023-01-28T20:36:56;103337.59;;;3.63;75.18
60437;BME280;46289;51.992;4.498;2023-01-28T20:39:03;103334.19;;;3.64;75.46
60437;BME280;46289;51.992;4.498;2023-01-28T20:41:11;103342.84;;;3.65;75.06
60437;BME280;46289;51.992;4.498;2023-01-28T20:43:18;103344.59;;;3.64;75.33
60437;BME280;46289;51.992;4.498;2023-01-28T20:45:23;103340.19;;;3.62;75.70
60437;BME280;46289;51.992;4.498;2023-01-28T20:47:28;103323.56;;;3.57;75.29
60437;BME280;46289;51.992;4.498;2023-01-28T20:49:33;103326.25;;;3.60;75.31
60437;BME280;46289;51.992;4.498;2023-01-28T20:51:38;103334.84;;;3.57;75.11
60437;BME280;46289;51.992;4.498;2023-01-28T20:53:45;103326.09;;;3.54;75.73
60437;BME280;46289;51.992;4.498;2023-01-28T20:55:58;103329.47;;;3.51;75.92
60437;BME280;46289;51.992;4.498;2023-01-28T20:58:06;103326.78;;;3.48;76.30
60437;BME280;46289;51.992;4.498;2023-01-28T21:00:12;103334.53;;;3.46;75.89
60437;BME280;46289;51.992;4.498;2023-01-28T21:02:19;103329.25;;;3.43;76.01
60437;BME280;46289;51.992;4.498;2023-01-28T21:04:24;103327.50;;;3.42;75.57
60437;BME280;46289;51.992;4.498;2023-01-28T21:06:31;103329.16;;;3.40;76.28
60437;BME280;46289;51.992;4.498;2023-01-28T21:08:37;103316.09;;;3.37;76.43
60437;BME280;46289;51.992;4.498;2023-01-28T21:10:42;103314.28;;;3.35;76.34
60437;BME280;46289;51.992;4.498;2023-01-28T21:12:53;103318.56;;;3.34;76.68
60437;BME280;46289;51.992;4.498;2023-01-28T21:14:58;103326.34;;;3.33;76.48
60437;BME280;46289;51.992;4.498;2023-01-28T21:17:03;103334.16;;;3.34;76.51
60437;BME280;46289;51.992;4.498;2023-01-28T21:19:08;103330.69;;;3.34;76.51
60437;BME280;46289;51.992;4.498;2023-01-28T21:21:16;103329.88;;;3.35;77.53
60437;BME280;46289;51.992;4.498;2023-01-28T21:23:23;103330.69;;;3.34;77.03
60437;BME280;46289;51.992;4.498;2023-01-28T21:25:31;103325.47;;;3.32;77.06
60437;BME280;46289;51.992;4.498;2023-01-28T21:27:36;103337.66;;;3.35;77.26
60437;BME280;46289;51.992;4.498;2023-01-28T21:29:44;103342.81;;;3.33;77.07
60437;BME280;46289;51.992;4.498;2023-01-28T21:31:49;103341.88;;;3.31;77.37
60437;BME280;46289;51.992;4.498;2023-01-28T21:33:56;103335.75;;;3.29;77.07
60437;BME280;46289;51.992;4.498;2023-01-28T21:36:07;103340.91;;;3.27;77.28
60437;BME280;46289;51.992;4.498;2023-01-28T21:38:13;103344.44;;;3.29;78.00
60437;BME280;46289;51.992;4.498;2023-01-28T21:40:21;103335.75;;;3.29;77.66
60437;BME280;46289;51.992;4.498;2023-01-28T21:42:27;103341.88;;;3.31;77.61
60437;BME280;46289;51.992;4.498;2023-01-28T21:44:33;103347.91;;;3.30;77.50
60437;BME280;46289;51.992;4.498;2023-01-28T21:46:40;103341.06;;;3.32;77.53
60437;BME280;46289;51.992;4.498;2023-01-28T21:48:52;103343.69;;;3.34;77.91
60437;BME280;46289;51.992;4.498;2023-01-28T21:51:03;103348.88;;;3.34;77.35
60437;BME280;46289;51.992;4.498;2023-01-28T21:53:21;103345.34;;;3.32;77.74
60437;BME280;46289;51.992;4.498;2023-01-28T21:55:26;103335.88;;;3.34;77.08
60437;BME280;46289;51.992;4.498;2023-01-28T21:57:31;103328.88;;;3.31;77.74
60437;BME280;46289;51.992;4.498;2023-01-28T21:59:36;103329.72;;;3.30;77.63
60437;BME280;46289;51.992;4.498;2023-01-28T22:01:45;103324.53;;;3.30;77.48
60437;BME280;46289;51.992;4.498;2023-01-28T22:03:53;103321.06;;;3.29;77.98
60437;BME280;46289;51.992;4.498;2023-01-28T22:05:58;103311.44;;;3.27;77.78
60437;BME280;46289;51.992;4.498;2023-01-28T22:08:05;103317.59;;;3.30;77.81
60437;BME280;46289;51.992;4.498;2023-01-28T22:10:11;103321.13;;;3.33;77.81
60437;BME280;46289;51.992;4.498;2023-01-28T22:12:19;103320.22;;;3.30;77.78
60437;BME280;46289;51.992;4.498;2023-01-28T22:14:24;103321.84;;;3.27;78.29